Saint Benedict, Oregon
Current Conditions -  °F | °C
As of 9:28 PM on Thursday 27 Nov 2014 (Local Time) from KUAO Reporting Station
Overcast Overcast  
Wind Chill: 53°   Ceiling: 3000
Heat Index: 53°   Visibility: 10mi
Dew Point: 50°   Wind: 15mph
Humidity: 89%   Direction: 180°S
Pressure: 29.87"   Gusts: 21mph
Location:  45.05°N, 122.76°W
Report Text: KUAO 280528Z AUTO 18013G18KT 10SM BKN030 OVC037 12/10 A2987 RMK AO2 T01170100
Loading
Personal Weather Stations






























Interactive Weather Map New forecast layout! Learn more

10-Day Weather Forecast

Advertisements
Track Severe Weather on mobile